sensor_id;sensor_type;location;lat;lon;timestamp;P1;durP1;ratioP1;P2;durP2;ratioP2
3081;SDS011;1551;51.046;7.010;2023-03-02T00:00:11;13.38;;;10.85;;
3081;SDS011;1551;51.046;7.010;2023-03-02T00:03:04;12.30;;;9.90;;
3081;SDS011;1551;51.046;7.010;2023-03-02T00:05:54;13.35;;;10.40;;
3081;SDS011;1551;51.046;7.010;2023-03-02T00:08:44;13.60;;;10.65;;
3081;SDS011;1551;51.046;7.010;2023-03-02T00:11:35;13.63;;;10.20;;
3081;SDS011;1551;51.046;7.010;2023-03-02T00:14:26;14.63;;;11.60;;
3081;SDS011;1551;51.046;7.010;2023-03-02T00:17:15;15.00;;;10.88;;
3081;SDS011;1551;51.046;7.010;2023-03-02T00:20:04;14.03;;;10.77;;
3081;SDS011;1551;51.046;7.010;2023-03-02T00:22:59;13.35;;;10.32;;
3081;SDS011;1551;51.046;7.010;2023-03-02T00:25:48;14.60;;;10.50;;
3081;SDS011;1551;51.046;7.010;2023-03-02T00:28:37;15.40;;;10.67;;
3081;SDS011;1551;51.046;7.010;2023-03-02T00:31:26;12.85;;;10.80;;
3081;SDS011;1551;51.046;7.010;2023-03-02T00:34:16;13.50;;;9.90;;
3081;SDS011;1551;51.046;7.010;2023-03-02T00:37:05;14.77;;;10.38;;
3081;SDS011;1551;51.046;7.010;2023-03-02T00:39:54;12.48;;;9.93;;
3081;SDS011;1551;51.046;7.010;2023-03-02T00:42:43;15.38;;;10.00;;
3081;SDS011;1551;51.046;7.010;2023-03-02T00:45:32;13.60;;;9.65;;
3081;SDS011;1551;51.046;7.010;2023-03-02T00:48:21;11.43;;;9.40;;
3081;SDS011;1551;51.046;7.010;2023-03-02T00:51:11;13.10;;;9.82;;
3081;SDS011;1551;51.046;7.010;2023-03-02T00:54:00;12.82;;;9.90;;
3081;SDS011;1551;51.046;7.010;2023-03-02T00:56:50;13.30;;;9.68;;
3081;SDS011;1551;51.046;7.010;2023-03-02T00:59:40;17.77;;;10.10;;
3081;SDS011;1551;51.046;7.010;2023-03-02T01:02:52;14.77;;;9.73;;
3081;SDS011;1551;51.046;7.010;2023-03-02T01:05:41;13.50;;;9.80;;
3081;SDS011;1551;51.046;7.010;2023-03-02T01:08:30;12.60;;;9.05;;
3081;SDS011;1551;51.046;7.010;2023-03-02T01:11:20;15.98;;;9.70;;
3081;SDS011;1551;51.046;7.010;2023-03-02T01:14:10;14.77;;;10.15;;
3081;SDS011;1551;51.046;7.010;2023-03-02T01:16:59;12.65;;;9.27;;
3081;SDS011;1551;51.046;7.010;2023-03-02T01:19:48;12.20;;;9.33;;
3081;SDS011;1551;51.046;7.010;2023-03-02T01:22:37;13.48;;;9.73;;
3081;SDS011;1551;51.046;7.010;2023-03-02T01:25:26;12.73;;;10.10;;
3081;SDS011;1551;51.046;7.010;2023-03-02T01:28:15;13.70;;;8.97;;
3081;SDS011;1551;51.046;7.010;2023-03-02T01:31:04;13.57;;;9.88;;
3081;SDS011;1551;51.046;7.010;2023-03-02T01:33:53;15.85;;;10.40;;
3081;SDS011;1551;51.046;7.010;2023-03-02T01:36:42;11.80;;;9.07;;
3081;SDS011;1551;51.046;7.010;2023-03-02T01:39:34;12.65;;;9.18;;
3081;SDS011;1551;51.046;7.010;2023-03-02T01:42:23;11.93;;;9.63;;
3081;SDS011;1551;51.046;7.010;2023-03-02T01:48:38;12.15;;;9.10;;
3081;SDS011;1551;51.046;7.010;2023-03-02T01:51:35;16.80;;;10.68;;
3081;SDS011;1551;51.046;7.010;2023-03-02T01:54:29;13.40;;;9.07;;
3081;SDS011;1551;51.046;7.010;2023-03-02T01:57:24;12.40;;;8.53;;
3081;SDS011;1551;51.046;7.010;2023-03-02T02:00:19;14.70;;;9.50;;
3081;SDS011;1551;51.046;7.010;2023-03-02T02:03:13;11.63;;;9.15;;
3081;SDS011;1551;51.046;7.010;2023-03-02T02:09:06;14.57;;;9.23;;
3081;SDS011;1551;51.046;7.010;2023-03-02T02:11:58;10.85;;;9.35;;
3081;SDS011;1551;51.046;7.010;2023-03-02T02:14:47;11.32;;;8.88;;
3081;SDS011;1551;51.046;7.010;2023-03-02T02:17:37;10.20;;;8.90;;
3081;SDS011;1551;51.046;7.010;2023-03-02T02:20:32;13.38;;;9.00;;
3081;SDS011;1551;51.046;7.010;2023-03-02T02:23:27;12.50;;;9.27;;
3081;SDS011;1551;51.046;7.010;2023-03-02T02:29:43;11.15;;;8.73;;
3081;SDS011;1551;51.046;7.010;2023-03-02T02:32:37;10.05;;;8.13;;
3081;SDS011;1551;51.046;7.010;2023-03-02T02:35:28;12.10;;;8.88;;
3081;SDS011;1551;51.046;7.010;2023-03-02T02:38:22;11.90;;;8.70;;
3081;SDS011;1551;51.046;7.010;2023-03-02T02:41:16;12.38;;;9.32;;
3081;SDS011;1551;51.046;7.010;2023-03-02T02:44:11;12.32;;;9.70;;
3081;SDS011;1551;51.046;7.010;2023-03-02T02:47:08;11.95;;;8.50;;
3081;SDS011;1551;51.046;7.010;2023-03-02T02:50:18;12.52;;;9.32;;
3081;SDS011;1551;51.046;7.010;2023-03-02T02:56:07;12.20;;;8.90;;
3081;SDS011;1551;51.046;7.010;2023-03-02T02:59:00;12.63;;;8.55;;
3081;SDS011;1551;51.046;7.010;2023-03-02T03:02:03;13.48;;;10.40;;
3081;SDS011;1551;51.046;7.010;2023-03-02T03:04:52;12.10;;;8.80;;
3081;SDS011;1551;51.046;7.010;2023-03-02T03:07:52;12.77;;;8.73;;
3081;SDS011;1551;51.046;7.010;2023-03-02T03:10:53;9.95;;;8.82;;
3081;SDS011;1551;51.046;7.010;2023-03-02T03:13:42;12.90;;;8.80;;
3081;SDS011;1551;51.046;7.010;2023-03-02T03:16:32;12.70;;;9.65;;
3081;SDS011;1551;51.046;7.010;2023-03-02T03:19:24;15.03;;;8.87;;
3081;SDS011;1551;51.046;7.010;2023-03-02T03:22:19;13.13;;;9.00;;
3081;SDS011;1551;51.046;7.010;2023-03-02T03:25:10;12.63;;;8.90;;
3081;SDS011;1551;51.046;7.010;2023-03-02T03:28:03;12.83;;;8.90;;
3081;SDS011;1551;51.046;7.010;2023-03-02T03:30:54;11.60;;;8.68;;
3081;SDS011;1551;51.046;7.010;2023-03-02T03:33:44;12.23;;;9.35;;
3081;SDS011;1551;51.046;7.010;2023-03-02T03:36:34;12.87;;;8.90;;
3081;SDS011;1551;51.046;7.010;2023-03-02T03:39:24;11.85;;;8.80;;
3081;SDS011;1551;51.046;7.010;2023-03-02T03:42:13;11.75;;;9.63;;
3081;SDS011;1551;51.046;7.010;2023-03-02T03:45:04;13.85;;;9.40;;
3081;SDS011;1551;51.046;7.010;2023-03-02T03:47:56;13.05;;;9.50;;
3081;SDS011;1551;51.046;7.010;2023-03-02T03:50:45;13.55;;;9.30;;
3081;SDS011;1551;51.046;7.010;2023-03-02T03:53:34;13.20;;;9.53;;
3081;SDS011;1551;51.046;7.010;2023-03-02T03:56:29;13.48;;;9.30;;
3081;SDS011;1551;51.046;7.010;2023-03-02T03:59:23;15.40;;;9.70;;
3081;SDS011;1551;51.046;7.010;2023-03-02T04:02:17;13.48;;;9.50;;
3081;SDS011;1551;51.046;7.010;2023-03-02T04:05:06;12.65;;;9.43;;
3081;SDS011;1551;51.046;7.010;2023-03-02T04:07:56;12.23;;;9.60;;
3081;SDS011;1551;51.046;7.010;2023-03-02T04:10:50;12.30;;;8.98;;
3081;SDS011;1551;51.046;7.010;2023-03-02T04:13:39;10.90;;;9.20;;
3081;SDS011;1551;51.046;7.010;2023-03-02T04:16:29;12.75;;;9.90;;
3081;SDS011;1551;51.046;7.010;2023-03-02T04:19:18;14.27;;;10.05;;
3081;SDS011;1551;51.046;7.010;2023-03-02T04:22:11;11.98;;;9.27;;
3081;SDS011;1551;51.046;7.010;2023-03-02T04:25:01;14.70;;;10.17;;
3081;SDS011;1551;51.046;7.010;2023-03-02T04:27:51;12.45;;;9.25;;
3081;SDS011;1551;51.046;7.010;2023-03-02T04:30:42;15.32;;;11.25;;
3081;SDS011;1551;51.046;7.010;2023-03-02T04:33:31;14.60;;;10.48;;
3081;SDS011;1551;51.046;7.010;2023-03-02T04:36:20;14.90;;;9.82;;
3081;SDS011;1551;51.046;7.010;2023-03-02T04:39:11;15.88;;;10.18;;
3081;SDS011;1551;51.046;7.010;2023-03-02T04:42:03;13.60;;;9.95;;
3081;SDS011;1551;51.046;7.010;2023-03-02T04:44:52;12.90;;;9.57;;
3081;SDS011;1551;51.046;7.010;2023-03-02T04:47:41;12.52;;;9.90;;
3081;SDS011;1551;51.046;7.010;2023-03-02T04:50:30;15.15;;;10.82;;
3081;SDS011;1551;51.046;7.010;2023-03-02T04:53:19;15.17;;;9.80;;
3081;SDS011;1551;51.046;7.010;2023-03-02T04:56:09;14.03;;;9.83;;
3081;SDS011;1551;51.046;7.010;2023-03-02T04:58:58;12.85;;;10.27;;
3081;SDS011;1551;51.046;7.010;2023-03-02T05:01:47;13.13;;;9.98;;
3081;SDS011;1551;51.046;7.010;2023-03-02T05:04:36;14.45;;;9.50;;
3081;SDS011;1551;51.046;7.010;2023-03-02T05:07:25;12.77;;;10.13;;
3081;SDS011;1551;51.046;7.010;2023-03-02T05:10:15;14.65;;;10.00;;
3081;SDS011;1551;51.046;7.010;2023-03-02T05:13:05;11.65;;;10.00;;
3081;SDS011;1551;51.046;7.010;2023-03-02T05:15:54;16.00;;;10.13;;
3081;SDS011;1551;51.046;7.010;2023-03-02T05:18:45;14.77;;;10.43;;
3081;SDS011;1551;51.046;7.010;2023-03-02T05:21:34;11.55;;;9.70;;
3081;SDS011;1551;51.046;7.010;2023-03-02T05:24:24;13.60;;;10.65;;
3081;SDS011;1551;51.046;7.010;2023-03-02T05:27:13;13.20;;;10.15;;
3081;SDS011;1551;51.046;7.010;2023-03-02T05:30:05;14.40;;;10.02;;
3081;SDS011;1551;51.046;7.010;2023-03-02T05:32:54;12.18;;;10.30;;
3081;SDS011;1551;51.046;7.010;2023-03-02T05:35:43;13.65;;;10.27;;
3081;SDS011;1551;51.046;7.010;2023-03-02T05:38:32;13.30;;;9.73;;
3081;SDS011;1551;51.046;7.010;2023-03-02T05:41:22;17.77;;;12.10;;
3081;SDS011;1551;51.046;7.010;2023-03-02T05:44:12;21.15;;;13.52;;
3081;SDS011;1551;51.046;7.010;2023-03-02T05:47:01;15.35;;;11.90;;
3081;SDS011;1551;51.046;7.010;2023-03-02T05:49:50;18.08;;;12.15;;
3081;SDS011;1551;51.046;7.010;2023-03-02T05:52:39;16.27;;;12.77;;
3081;SDS011;1551;51.046;7.010;2023-03-02T05:55:28;15.27;;;11.60;;
3081;SDS011;1551;51.046;7.010;2023-03-02T05:58:18;14.07;;;10.52;;
3081;SDS011;1551;51.046;7.010;2023-03-02T06:01:08;13.93;;;9.97;;
3081;SDS011;1551;51.046;7.010;2023-03-02T06:03:59;12.27;;;10.45;;
3081;SDS011;1551;51.046;7.010;2023-03-02T06:06:48;13.45;;;9.70;;
3081;SDS011;1551;51.046;7.010;2023-03-02T06:09:37;16.00;;;11.77;;
3081;SDS011;1551;51.046;7.010;2023-03-02T06:12:27;14.98;;;10.43;;
3081;SDS011;1551;51.046;7.010;2023-03-02T06:15:16;14.03;;;11.27;;
3081;SDS011;1551;51.046;7.010;2023-03-02T06:18:06;12.38;;;9.50;;
3081;SDS011;1551;51.046;7.010;2023-03-02T06:20:55;13.20;;;10.25;;
3081;SDS011;1551;51.046;7.010;2023-03-02T06:23:44;15.98;;;11.00;;
3081;SDS011;1551;51.046;7.010;2023-03-02T06:26:33;15.90;;;10.65;;
3081;SDS011;1551;51.046;7.010;2023-03-02T06:29:22;16.60;;;10.13;;
3081;SDS011;1551;51.046;7.010;2023-03-02T06:32:11;13.63;;;10.32;;
3081;SDS011;1551;51.046;7.010;2023-03-02T06:35:00;13.25;;;9.90;;
3081;SDS011;1551;51.046;7.010;2023-03-02T06:37:50;16.90;;;10.68;;
3081;SDS011;1551;51.046;7.010;2023-03-02T06:40:39;13.27;;;9.20;;
3081;SDS011;1551;51.046;7.010;2023-03-02T06:43:28;11.13;;;9.43;;
3081;SDS011;1551;51.046;7.010;2023-03-02T06:46:17;16.50;;;10.85;;
3081;SDS011;1551;51.046;7.010;2023-03-02T06:49:06;13.32;;;9.52;;
3081;SDS011;1551;51.046;7.010;2023-03-02T06:51:56;13.35;;;9.18;;
3081;SDS011;1551;51.046;7.010;2023-03-02T06:54:45;13.63;;;9.60;;
3081;SDS011;1551;51.046;7.010;2023-03-02T06:57:34;13.23;;;9.55;;
3081;SDS011;1551;51.046;7.010;2023-03-02T07:00:23;14.40;;;9.73;;
3081;SDS011;1551;51.046;7.010;2023-03-02T07:03:14;15.00;;;10.52;;
3081;SDS011;1551;51.046;7.010;2023-03-02T07:06:05;16.90;;;11.25;;
3081;SDS011;1551;51.046;7.010;2023-03-02T07:08:54;12.43;;;9.98;;
3081;SDS011;1551;51.046;7.010;2023-03-02T07:11:43;13.35;;;10.60;;
3081;SDS011;1551;51.046;7.010;2023-03-02T07:14:33;14.35;;;10.15;;
3081;SDS011;1551;51.046;7.010;2023-03-02T07:17:25;16.40;;;11.15;;
3081;SDS011;1551;51.046;7.010;2023-03-02T07:20:15;17.77;;;11.05;;
3081;SDS011;1551;51.046;7.010;2023-03-02T07:23:06;16.98;;;10.95;;
3081;SDS011;1551;51.046;7.010;2023-03-02T07:25:55;14.85;;;10.75;;
3081;SDS011;1551;51.046;7.010;2023-03-02T07:28:45;17.23;;;10.70;;
3081;SDS011;1551;51.046;7.010;2023-03-02T07:31:34;17.25;;;10.35;;
3081;SDS011;1551;51.046;7.010;2023-03-02T07:34:23;16.30;;;10.30;;
3081;SDS011;1551;51.046;7.010;2023-03-02T07:37:13;15.95;;;10.50;;
3081;SDS011;1551;51.046;7.010;2023-03-02T07:40:03;17.25;;;11.50;;
3081;SDS011;1551;51.046;7.010;2023-03-02T07:42:53;13.70;;;10.67;;
3081;SDS011;1551;51.046;7.010;2023-03-02T07:45:42;20.63;;;13.43;;
3081;SDS011;1551;51.046;7.010;2023-03-02T07:48:33;17.80;;;12.80;;
3081;SDS011;1551;51.046;7.010;2023-03-02T07:51:22;16.77;;;13.23;;
3081;SDS011;1551;51.046;7.010;2023-03-02T07:54:11;21.23;;;12.90;;
3081;SDS011;1551;51.046;7.010;2023-03-02T07:57:00;18.33;;;12.73;;
3081;SDS011;1551;51.046;7.010;2023-03-02T07:59:49;17.58;;;13.48;;
3081;SDS011;1551;51.046;7.010;2023-03-02T08:02:39;15.18;;;11.38;;
3081;SDS011;1551;51.046;7.010;2023-03-02T08:05:29;15.60;;;11.65;;
3081;SDS011;1551;51.046;7.010;2023-03-02T08:08:18;17.85;;;12.23;;
3081;SDS011;1551;51.046;7.010;2023-03-02T08:11:08;18.00;;;12.45;;
3081;SDS011;1551;51.046;7.010;2023-03-02T08:13:59;15.93;;;11.80;;
3081;SDS011;1551;51.046;7.010;2023-03-02T08:16:49;15.50;;;11.60;;
3081;SDS011;1551;51.046;7.010;2023-03-02T08:19:39;13.40;;;11.02;;
3081;SDS011;1551;51.046;7.010;2023-03-02T08:22:29;14.40;;;10.50;;
3081;SDS011;1551;51.046;7.010;2023-03-02T08:25:18;13.83;;;10.37;;
3081;SDS011;1551;51.046;7.010;2023-03-02T08:28:07;15.38;;;9.65;;
3081;SDS011;1551;51.046;7.010;2023-03-02T08:30:59;12.45;;;9.55;;
3081;SDS011;1551;51.046;7.010;2023-03-02T08:33:50;13.60;;;9.57;;
3081;SDS011;1551;51.046;7.010;2023-03-02T08:36:39;10.68;;;8.73;;
3081;SDS011;1551;51.046;7.010;2023-03-02T08:39:30;11.32;;;8.50;;
3081;SDS011;1551;51.046;7.010;2023-03-02T08:42:20;11.60;;;8.25;;
3081;SDS011;1551;51.046;7.010;2023-03-02T08:45:08;12.70;;;9.00;;
3081;SDS011;1551;51.046;7.010;2023-03-02T08:47:57;12.73;;;9.50;;
3081;SDS011;1551;51.046;7.010;2023-03-02T08:50:57;14.65;;;9.73;;
3081;SDS011;1551;51.046;7.010;2023-03-02T08:53:48;11.38;;;8.65;;
3081;SDS011;1551;51.046;7.010;2023-03-02T08:56:39;11.18;;;8.30;;
3081;SDS011;1551;51.046;7.010;2023-03-02T08:59:28;15.07;;;9.40;;
3081;SDS011;1551;51.046;7.010;2023-03-02T09:02:18;10.05;;;8.60;;
3081;SDS011;1551;51.046;7.010;2023-03-02T09:05:07;10.70;;;8.30;;
3081;SDS011;1551;51.046;7.010;2023-03-02T09:07:56;10.93;;;8.38;;
3081;SDS011;1551;51.046;7.010;2023-03-02T09:10:45;12.13;;;8.70;;
3081;SDS011;1551;51.046;7.010;2023-03-02T09:13:34;9.80;;;7.75;;
3081;SDS011;1551;51.046;7.010;2023-03-02T09:16:24;12.03;;;9.30;;
3081;SDS011;1551;51.046;7.010;2023-03-02T09:19:13;11.07;;;7.85;;
3081;SDS011;1551;51.046;7.010;2023-03-02T09:22:02;12.38;;;8.30;;
3081;SDS011;1551;51.046;7.010;2023-03-02T09:24:51;11.53;;;9.00;;
3081;SDS011;1551;51.046;7.010;2023-03-02T09:27:40;11.95;;;9.82;;
3081;SDS011;1551;51.046;7.010;2023-03-02T09:30:29;12.68;;;9.00;;
3081;SDS011;1551;51.046;7.010;2023-03-02T09:33:19;10.15;;;8.40;;
3081;SDS011;1551;51.046;7.010;2023-03-02T09:36:10;11.82;;;8.13;;
3081;SDS011;1551;51.046;7.010;2023-03-02T09:39:05;11.73;;;8.85;;
3081;SDS011;1551;51.046;7.010;2023-03-02T09:45:19;10.40;;;8.45;;
3081;SDS011;1551;51.046;7.010;2023-03-02T09:52:07;9.13;;;7.63;;
3081;SDS011;1551;51.046;7.010;2023-03-02T09:55:17;10.38;;;7.78;;
3081;SDS011;1551;51.046;7.010;2023-03-02T09:58:19;10.23;;;8.17;;
3081;SDS011;1551;51.046;7.010;2023-03-02T10:01:15;10.30;;;8.63;;
3081;SDS011;1551;51.046;7.010;2023-03-02T10:04:25;11.32;;;8.20;;
3081;SDS011;1551;51.046;7.010;2023-03-02T10:07:18;10.57;;;8.48;;
3081;SDS011;1551;51.046;7.010;2023-03-02T10:10:23;10.13;;;8.17;;
3081;SDS011;1551;51.046;7.010;2023-03-02T10:13:19;10.73;;;9.13;;
3081;SDS011;1551;51.046;7.010;2023-03-02T10:22:17;11.40;;;8.57;;
3081;SDS011;1551;51.046;7.010;2023-03-02T10:25:16;11.38;;;8.45;;
3081;SDS011;1551;51.046;7.010;2023-03-02T10:28:18;13.00;;;8.85;;
3081;SDS011;1551;51.046;7.010;2023-03-02T10:31:11;12.20;;;9.48;;
3081;SDS011;1551;51.046;7.010;2023-03-02T10:34:14;9.65;;;8.30;;
3081;SDS011;1551;51.046;7.010;2023-03-02T10:37:09;10.57;;;8.05;;
3081;SDS011;1551;51.046;7.010;2023-03-02T10:40:03;10.30;;;8.20;;
3081;SDS011;1551;51.046;7.010;2023-03-02T10:42:53;9.77;;;8.25;;
3081;SDS011;1551;51.046;7.010;2023-03-02T10:45:44;12.40;;;8.48;;
3081;SDS011;1551;51.046;7.010;2023-03-02T10:48:45;10.20;;;8.03;;
3081;SDS011;1551;51.046;7.010;2023-03-02T10:51:34;9.20;;;8.30;;
3081;SDS011;1551;51.046;7.010;2023-03-02T10:54:23;10.25;;;7.63;;
3081;SDS011;1551;51.046;7.010;2023-03-02T11:00:32;9.53;;;8.13;;
3081;SDS011;1551;51.046;7.010;2023-03-02T11:03:22;10.50;;;8.60;;
3081;SDS011;1551;51.046;7.010;2023-03-02T11:06:16;10.18;;;8.40;;
3081;SDS011;1551;51.046;7.010;2023-03-02T11:09:12;9.10;;;8.20;;
3081;SDS011;1551;51.046;7.010;2023-03-02T11:12:01;11.20;;;8.33;;
3081;SDS011;1551;51.046;7.010;2023-03-02T11:21:16;8.77;;;7.88;;
3081;SDS011;1551;51.046;7.010;2023-03-02T11:24:10;9.18;;;8.18;;
3081;SDS011;1551;51.046;7.010;2023-03-02T11:27:06;9.68;;;8.00;;
3081;SDS011;1551;51.046;7.010;2023-03-02T11:30:18;9.90;;;8.90;;
3081;SDS011;1551;51.046;7.010;2023-03-02T11:33:15;11.20;;;8.27;;
3081;SDS011;1551;51.046;7.010;2023-03-02T11:36:14;8.63;;;7.73;;
3081;SDS011;1551;51.046;7.010;2023-03-02T11:39:10;11.07;;;7.57;;
3081;SDS011;1551;51.046;7.010;2023-03-02T11:42:04;8.75;;;7.18;;
3081;SDS011;1551;51.046;7.010;2023-03-02T11:44:53;9.93;;;8.10;;
3081;SDS011;1551;51.046;7.010;2023-03-02T11:51:17;8.18;;;7.20;;
3081;SDS011;1551;51.046;7.010;2023-03-02T11:54:14;9.90;;;7.50;;
3081;SDS011;1551;51.046;7.010;2023-03-02T11:57:39;9.25;;;7.10;;
3081;SDS011;1551;51.046;7.010;2023-03-02T12:00:37;9.35;;;8.32;;
3081;SDS011;1551;51.046;7.010;2023-03-02T12:15:41;10.13;;;7.80;;
3081;SDS011;1551;51.046;7.010;2023-03-02T12:18:43;9.05;;;7.40;;
3081;SDS011;1551;51.046;7.010;2023-03-02T12:21:40;7.80;;;7.00;;
3081;SDS011;1551;51.046;7.010;2023-03-02T12:24:57;8.68;;;7.45;;
3081;SDS011;1551;51.046;7.010;2023-03-02T12:27:50;8.70;;;6.80;;
3081;SDS011;1551;51.046;7.010;2023-03-02T12:30:41;8.07;;;7.07;;
3081;SDS011;1551;51.046;7.010;2023-03-02T12:33:30;8.75;;;7.22;;
3081;SDS011;1551;51.046;7.010;2023-03-02T12:36:23;8.48;;;6.90;;
3081;SDS011;1551;51.046;7.010;2023-03-02T12:45:43;7.82;;;7.00;;
3081;SDS011;1551;51.046;7.010;2023-03-02T12:54:36;11.00;;;8.20;;
3081;SDS011;1551;51.046;7.010;2023-03-02T12:57:25;8.57;;;7.40;;
3081;SDS011;1551;51.046;7.010;2023-03-02T13:00:16;9.15;;;7.50;;
3081;SDS011;1551;51.046;7.010;2023-03-02T13:03:11;12.07;;;7.53;;
3081;SDS011;1551;51.046;7.010;2023-03-02T13:06:02;8.40;;;7.47;;
3081;SDS011;1551;51.046;7.010;2023-03-02T13:08:58;8.48;;;6.97;;
3081;SDS011;1551;51.046;7.010;2023-03-02T13:11:48;9.65;;;7.03;;
3081;SDS011;1551;51.046;7.010;2023-03-02T13:14:40;7.43;;;6.68;;
3081;SDS011;1551;51.046;7.010;2023-03-02T13:17:34;7.82;;;6.47;;
3081;SDS011;1551;51.046;7.010;2023-03-02T13:20:24;7.47;;;6.50;;
3081;SDS011;1551;51.046;7.010;2023-03-02T13:23:16;8.30;;;6.50;;
3081;SDS011;1551;51.046;7.010;2023-03-02T13:26:06;8.90;;;6.60;;
3081;SDS011;1551;51.046;7.010;2023-03-02T13:28:59;7.78;;;6.95;;
3081;SDS011;1551;51.046;7.010;2023-03-02T13:35:35;9.33;;;6.83;;
3081;SDS011;1551;51.046;7.010;2023-03-02T13:38:28;7.47;;;6.43;;
3081;SDS011;1551;51.046;7.010;2023-03-02T13:41:28;9.10;;;6.78;;
3081;SDS011;1551;51.046;7.010;2023-03-02T13:44:20;8.02;;;6.20;;
3081;SDS011;1551;51.046;7.010;2023-03-02T13:47:20;7.05;;;5.65;;
3081;SDS011;1551;51.046;7.010;2023-03-02T13:50:17;7.63;;;6.43;;
3081;SDS011;1551;51.046;7.010;2023-03-02T13:53:10;7.70;;;5.93;;
3081;SDS011;1551;51.046;7.010;2023-03-02T13:55:59;7.60;;;5.60;;
3081;SDS011;1551;51.046;7.010;2023-03-02T13:58:50;6.90;;;5.80;;
3081;SDS011;1551;51.046;7.010;2023-03-02T14:01:39;7.80;;;6.00;;
3081;SDS011;1551;51.046;7.010;2023-03-02T14:04:31;6.90;;;6.20;;
3081;SDS011;1551;51.046;7.010;2023-03-02T14:07:20;8.07;;;6.20;;
3081;SDS011;1551;51.046;7.010;2023-03-02T14:10:09;7.20;;;6.30;;
3081;SDS011;1551;51.046;7.010;2023-03-02T14:13:11;6.63;;;5.00;;
3081;SDS011;1551;51.046;7.010;2023-03-02T14:16:13;7.32;;;5.47;;
3081;SDS011;1551;51.046;7.010;2023-03-02T14:19:04;6.90;;;4.97;;
3081;SDS011;1551;51.046;7.010;2023-03-02T14:21:53;6.70;;;5.13;;
3081;SDS011;1551;51.046;7.010;2023-03-02T14:24:42;5.78;;;4.90;;
3081;SDS011;1551;51.046;7.010;2023-03-02T14:27:34;5.90;;;5.30;;
3081;SDS011;1551;51.046;7.010;2023-03-02T14:30:24;6.78;;;5.72;;
3081;SDS011;1551;51.046;7.010;2023-03-02T14:33:14;9.93;;;6.53;;
3081;SDS011;1551;51.046;7.010;2023-03-02T14:36:05;6.10;;;5.07;;
3081;SDS011;1551;51.046;7.010;2023-03-02T14:38:55;8.07;;;5.40;;
3081;SDS011;1551;51.046;7.010;2023-03-02T14:41:45;8.35;;;5.53;;
3081;SDS011;1551;51.046;7.010;2023-03-02T14:44:34;7.00;;;5.70;;
3081;SDS011;1551;51.046;7.010;2023-03-02T14:47:23;7.93;;;4.93;;
3081;SDS011;1551;51.046;7.010;2023-03-02T14:50:12;5.50;;;4.80;;
3081;SDS011;1551;51.046;7.010;2023-03-02T14:53:01;7.38;;;5.53;;
3081;SDS011;1551;51.046;7.010;2023-03-02T14:55:51;7.10;;;5.28;;
3081;SDS011;1551;51.046;7.010;2023-03-02T14:58:39;8.88;;;5.75;;
3081;SDS011;1551;51.046;7.010;2023-03-02T15:01:28;6.63;;;5.53;;
3081;SDS011;1551;51.046;7.010;2023-03-02T15:04:18;6.63;;;5.07;;
3081;SDS011;1551;51.046;7.010;2023-03-02T15:07:11;7.57;;;5.37;;
3081;SDS011;1551;51.046;7.010;2023-03-02T15:10:03;6.97;;;4.80;;
3081;SDS011;1551;51.046;7.010;2023-03-02T15:12:53;6.47;;;5.13;;
3081;SDS011;1551;51.046;7.010;2023-03-02T15:15:42;5.60;;;5.00;;
3081;SDS011;1551;51.046;7.010;2023-03-02T15:18:32;6.93;;;5.00;;
3081;SDS011;1551;51.046;7.010;2023-03-02T15:21:22;6.75;;;5.32;;
3081;SDS011;1551;51.046;7.010;2023-03-02T15:24:11;6.70;;;5.40;;
3081;SDS011;1551;51.046;7.010;2023-03-02T15:27:01;5.93;;;4.90;;
3081;SDS011;1551;51.046;7.010;2023-03-02T15:29:50;5.70;;;4.40;;
3081;SDS011;1551;51.046;7.010;2023-03-02T15:32:39;5.50;;;4.87;;
3081;SDS011;1551;51.046;7.010;2023-03-02T15:35:28;5.57;;;4.82;;
3081;SDS011;1551;51.046;7.010;2023-03-02T15:38:17;5.97;;;4.68;;
3081;SDS011;1551;51.046;7.010;2023-03-02T15:41:07;6.93;;;4.60;;
3081;SDS011;1551;51.046;7.010;2023-03-02T15:43:59;6.30;;;4.57;;
3081;SDS011;1551;51.046;7.010;2023-03-02T15:46:52;5.17;;;4.40;;
3081;SDS011;1551;51.046;7.010;2023-03-02T15:49:42;5.30;;;4.53;;
3081;SDS011;1551;51.046;7.010;2023-03-02T15:52:32;5.43;;;4.85;;
3081;SDS011;1551;51.046;7.010;2023-03-02T15:55:21;6.60;;;5.10;;
3081;SDS011;1551;51.046;7.010;2023-03-02T15:58:11;5.03;;;4.15;;
3081;SDS011;1551;51.046;7.010;2023-03-02T16:01:05;5.30;;;4.10;;
3081;SDS011;1551;51.046;7.010;2023-03-02T16:03:58;6.18;;;4.10;;
3081;SDS011;1551;51.046;7.010;2023-03-02T16:06:47;5.82;;;4.50;;
3081;SDS011;1551;51.046;7.010;2023-03-02T16:09:36;5.25;;;4.20;;
3081;SDS011;1551;51.046;7.010;2023-03-02T16:12:25;7.03;;;4.20;;
3081;SDS011;1551;51.046;7.010;2023-03-02T16:15:14;6.80;;;4.70;;
3081;SDS011;1551;51.046;7.010;2023-03-02T16:18:03;6.63;;;4.10;;
3081;SDS011;1551;51.046;7.010;2023-03-02T16:20:52;6.67;;;4.60;;
3081;SDS011;1551;51.046;7.010;2023-03-02T16:23:41;7.63;;;4.77;;
3081;SDS011;1551;51.046;7.010;2023-03-02T16:26:31;6.00;;;4.50;;
3081;SDS011;1551;51.046;7.010;2023-03-02T16:29:21;7.80;;;4.10;;
3081;SDS011;1551;51.046;7.010;2023-03-02T16:32:11;5.82;;;4.35;;
3081;SDS011;1551;51.046;7.010;2023-03-02T16:35:00;6.22;;;4.10;;
3081;SDS011;1551;51.046;7.010;2023-03-02T16:37:49;5.10;;;4.00;;
3081;SDS011;1551;51.046;7.010;2023-03-02T16:40:38;7.50;;;4.43;;
3081;SDS011;1551;51.046;7.010;2023-03-02T16:43:28;7.13;;;4.88;;
3081;SDS011;1551;51.046;7.010;2023-03-02T16:46:16;7.00;;;4.63;;
3081;SDS011;1551;51.046;7.010;2023-03-02T16:49:06;5.05;;;4.15;;
3081;SDS011;1551;51.046;7.010;2023-03-02T16:51:56;6.10;;;4.80;;
3081;SDS011;1551;51.046;7.010;2023-03-02T16:54:46;6.67;;;4.73;;
3081;SDS011;1551;51.046;7.010;2023-03-02T16:57:35;5.43;;;4.88;;
3081;SDS011;1551;51.046;7.010;2023-03-02T17:00:24;5.78;;;4.40;;
3081;SDS011;1551;51.046;7.010;2023-03-02T17:03:15;5.95;;;4.03;;
3081;SDS011;1551;51.046;7.010;2023-03-02T17:06:05;5.85;;;4.30;;
3081;SDS011;1551;51.046;7.010;2023-03-02T17:08:55;5.90;;;4.80;;
3081;SDS011;1551;51.046;7.010;2023-03-02T17:11:44;6.68;;;4.50;;
3081;SDS011;1551;51.046;7.010;2023-03-02T17:14:33;6.00;;;5.40;;
3081;SDS011;1551;51.046;7.010;2023-03-02T17:17:22;6.32;;;5.18;;
3081;SDS011;1551;51.046;7.010;2023-03-02T17:20:11;6.75;;;4.57;;
3081;SDS011;1551;51.046;7.010;2023-03-02T17:23:00;8.10;;;5.20;;
3081;SDS011;1551;51.046;7.010;2023-03-02T17:25:51;7.18;;;5.20;;
3081;SDS011;1551;51.046;7.010;2023-03-02T17:28:41;6.20;;;4.63;;
3081;SDS011;1551;51.046;7.010;2023-03-02T17:31:30;6.30;;;4.28;;
3081;SDS011;1551;51.046;7.010;2023-03-02T17:34:19;6.90;;;5.10;;
3081;SDS011;1551;51.046;7.010;2023-03-02T17:37:08;6.28;;;4.60;;
3081;SDS011;1551;51.046;7.010;2023-03-02T17:39:57;7.87;;;5.10;;
3081;SDS011;1551;51.046;7.010;2023-03-02T17:42:46;7.07;;;4.68;;
3081;SDS011;1551;51.046;7.010;2023-03-02T17:45:37;9.07;;;6.28;;
3081;SDS011;1551;51.046;7.010;2023-03-02T17:48:26;9.23;;;5.47;;
3081;SDS011;1551;51.046;7.010;2023-03-02T17:51:15;7.32;;;5.90;;
3081;SDS011;1551;51.046;7.010;2023-03-02T17:54:05;8.75;;;6.60;;
3081;SDS011;1551;51.046;7.010;2023-03-02T17:56:54;10.70;;;7.15;;
3081;SDS011;1551;51.046;7.010;2023-03-02T17:59:43;7.80;;;6.05;;
3081;SDS011;1551;51.046;7.010;2023-03-02T18:02:33;7.35;;;5.95;;
3081;SDS011;1551;51.046;7.010;2023-03-02T18:05:23;6.72;;;5.68;;
3081;SDS011;1551;51.046;7.010;2023-03-02T18:08:13;6.37;;;5.40;;
3081;SDS011;1551;51.046;7.010;2023-03-02T18:11:05;6.60;;;5.40;;
3081;SDS011;1551;51.046;7.010;2023-03-02T18:13:54;8.98;;;5.22;;
3081;SDS011;1551;51.046;7.010;2023-03-02T18:16:44;7.68;;;5.32;;
3081;SDS011;1551;51.046;7.010;2023-03-02T18:19:34;9.32;;;5.18;;
3081;SDS011;1551;51.046;7.010;2023-03-02T18:22:24;7.50;;;5.55;;
3081;SDS011;1551;51.046;7.010;2023-03-02T18:25:13;6.78;;;5.18;;
3081;SDS011;1551;51.046;7.010;2023-03-02T18:28:02;8.43;;;5.50;;
3081;SDS011;1551;51.046;7.010;2023-03-02T18:30:50;6.47;;;5.60;;
3081;SDS011;1551;51.046;7.010;2023-03-02T18:33:40;7.45;;;5.63;;
3081;SDS011;1551;51.046;7.010;2023-03-02T18:36:29;9.87;;;6.43;;